sensor_id;sensor_type;location;lat;lon;timestamp;pressure;altitude;pressure_sealevel;temperature;humidity
64933;BME280;51446;53.850;10.662;2023-08-30T00:01:52;100734.00;;;15.84;100.00
64933;BME280;51446;53.850;10.662;2023-08-30T00:04:17;100732.25;;;15.81;100.00
64933;BME280;51446;53.850;10.662;2023-08-30T00:06:43;100742.69;;;16.00;100.00
64933;BME280;51446;53.850;10.662;2023-08-30T00:09:08;100719.81;;;15.95;100.00
64933;BME280;51446;53.850;10.662;2023-08-30T00:11:34;100733.09;;;15.86;100.00
64933;BME280;51446;53.850;10.662;2023-08-30T00:14:03;100735.75;;;15.75;100.00
64933;BME280;51446;53.850;10.662;2023-08-30T00:16:30;100742.88;;;15.66;100.00
64933;BME280;51446;53.850;10.662;2023-08-30T00:18:56;100725.34;;;15.48;100.00
64933;BME280;51446;53.850;10.662;2023-08-30T00:21:21;100737.75;;;15.36;100.00
64933;BME280;51446;53.850;10.662;2023-08-30T00:23:47;100741.25;;;15.40;100.00
64933;BME280;51446;53.850;10.662;2023-08-30T00:26:12;100733.44;;;15.18;100.00
64933;BME280;51446;53.850;10.662;2023-08-30T00:28:38;100744.94;;;14.88;100.00
64933;BME280;51446;53.850;10.662;2023-08-30T00:31:04;100744.06;;;14.86;100.00
64933;BME280;51446;53.850;10.662;2023-08-30T00:33:30;100738.81;;;14.80;100.00
64933;BME280;51446;53.850;10.662;2023-08-30T00:35:58;100751.06;;;15.12;100.00
64933;BME280;51446;53.850;10.662;2023-08-30T00:38:26;100744.88;;;15.17;100.00
64933;BME280;51446;53.850;10.662;2023-08-30T00:40:51;100733.47;;;15.06;100.00
64933;BME280;51446;53.850;10.662;2023-08-30T00:43:17;100729.81;;;15.36;100.00
64933;BME280;51446;53.850;10.662;2023-08-30T00:45:44;100741.25;;;15.43;100.00
64933;BME280;51446;53.850;10.662;2023-08-30T00:48:10;100742.06;;;15.57;100.00
64933;BME280;51446;53.850;10.662;2023-08-30T00:50:37;100741.16;;;15.55;100.00
64933;BME280;51446;53.850;10.662;2023-08-30T00:53:03;100733.34;;;15.35;100.00
64933;BME280;51446;53.850;10.662;2023-08-30T00:55:33;100731.59;;;15.28;100.00
64933;BME280;51446;53.850;10.662;2023-08-30T00:57:59;100722.09;;;14.82;100.00
64933;BME280;51446;53.850;10.662;2023-08-30T01:00:25;100730.91;;;14.67;100.00
64933;BME280;51446;53.850;10.662;2023-08-30T01:02:53;100731.78;;;14.58;100.00
64933;BME280;51446;53.850;10.662;2023-08-30T01:05:19;100731.81;;;14.69;100.00
64933;BME280;51446;53.850;10.662;2023-08-30T01:07:44;100737.06;;;14.77;100.00
64933;BME280;51446;53.850;10.662;2023-08-30T01:10:10;100726.47;;;14.89;100.00
64933;BME280;51446;53.850;10.662;2023-08-30T01:12:47;100721.22;;;14.66;100.00
64933;BME280;51446;53.850;10.662;2023-08-30T01:15:19;100717.72;;;14.63;100.00
64933;BME280;51446;53.850;10.662;2023-08-30T01:17:47;100714.16;;;14.81;100.00
64933;BME280;51446;53.850;10.662;2023-08-30T01:20:14;100711.59;;;14.23;100.00
64933;BME280;51446;53.850;10.662;2023-08-30T01:23:01;100706.31;;;14.22;100.00
64933;BME280;51446;53.850;10.662;2023-08-30T01:28:33;100699.25;;;14.46;100.00
64933;BME280;51446;53.850;10.662;2023-08-30T01:30:59;100691.34;;;14.36;100.00
64933;BME280;51446;53.850;10.662;2023-08-30T01:33:26;100693.13;;;14.23;100.00
64933;BME280;51446;53.850;10.662;2023-08-30T01:35:57;100695.75;;;14.16;100.00
64933;BME280;51446;53.850;10.662;2023-08-30T01:38:25;100694.88;;;13.94;100.00
64933;BME280;51446;53.850;10.662;2023-08-30T01:40:51;100697.50;;;13.95;100.00
64933;BME280;51446;53.850;10.662;2023-08-30T01:43:18;100696.56;;;13.56;100.00
64933;BME280;51446;53.850;10.662;2023-08-30T01:45:46;100685.22;;;14.08;100.00
64933;BME280;51446;53.850;10.662;2023-08-30T01:48:14;100685.19;;;14.33;100.00
64933;BME280;51446;53.850;10.662;2023-08-30T01:50:42;100680.81;;;13.93;100.00
64933;BME280;51446;53.850;10.662;2023-08-30T01:53:09;100678.16;;;13.81;100.00
64933;BME280;51446;53.850;10.662;2023-08-30T01:55:37;100694.88;;;14.29;100.00
64933;BME280;51446;53.850;10.662;2023-08-30T01:58:04;100693.09;;;14.13;100.00
64933;BME280;51446;53.850;10.662;2023-08-30T02:00:29;100685.19;;;13.94;100.00
64933;BME280;51446;53.850;10.662;2023-08-30T02:02:56;100683.41;;;13.65;100.00
64933;BME280;51446;53.850;10.662;2023-08-30T02:05:21;100687.84;;;14.28;100.00
64933;BME280;51446;53.850;10.662;2023-08-30T02:08:19;100679.94;;;14.05;100.00
64933;BME280;51446;53.850;10.662;2023-08-30T02:10:56;100686.97;;;14.18;100.00
64933;BME280;51446;53.850;10.662;2023-08-30T02:13:26;100662.38;;;13.98;100.00
64933;BME280;51446;53.850;10.662;2023-08-30T02:15:54;100679.03;;;14.18;100.00
64933;BME280;51446;53.850;10.662;2023-08-30T02:18:21;100665.84;;;13.80;100.00
64933;BME280;51446;53.850;10.662;2023-08-30T02:20:46;100682.41;;;13.29;100.00
64933;BME280;51446;53.850;10.662;2023-08-30T02:23:11;100681.38;;;12.90;100.00
64933;BME280;51446;53.850;10.662;2023-08-30T02:25:37;100692.63;;;12.61;100.00
64933;BME280;51446;53.850;10.662;2023-08-30T02:28:03;100689.00;;;12.39;100.00
64933;BME280;51446;53.850;10.662;2023-08-30T02:30:28;100706.41;;;12.25;100.00
64933;BME280;51446;53.850;10.662;2023-08-30T02:32:53;100703.69;;;12.15;100.00
64933;BME280;51446;53.850;10.662;2023-08-30T02:35:20;100704.47;;;12.02;100.00
64933;BME280;51446;53.850;10.662;2023-08-30T02:37:45;100692.78;;;11.74;100.00
64933;BME280;51446;53.850;10.662;2023-08-30T02:40:11;100701.56;;;11.73;100.00
64933;BME280;51446;53.850;10.662;2023-08-30T02:42:37;100690.00;;;11.57;100.00
64933;BME280;51446;53.850;10.662;2023-08-30T02:45:03;100686.53;;;11.61;100.00
64933;BME280;51446;53.850;10.662;2023-08-30T02:47:28;100713.91;;;11.82;100.00
64933;BME280;51446;53.850;10.662;2023-08-30T02:49:54;100705.03;;;11.72;100.00
64933;BME280;51446;53.850;10.662;2023-08-30T02:52:19;100676.97;;;11.66;100.00
64933;BME280;51446;53.850;10.662;2023-08-30T02:54:45;100691.88;;;11.67;100.00
64933;BME280;51446;53.850;10.662;2023-08-30T02:57:10;100701.44;;;11.62;100.00
64933;BME280;51446;53.850;10.662;2023-08-30T02:59:36;100700.63;;;11.69;100.00
64933;BME280;51446;53.850;10.662;2023-08-30T03:02:01;100704.22;;;11.77;100.00
64933;BME280;51446;53.850;10.662;2023-08-30T03:04:27;100700.53;;;11.58;100.00
64933;BME280;51446;53.850;10.662;2023-08-30T03:06:52;100692.41;;;11.35;100.00
64933;BME280;51446;53.850;10.662;2023-08-30T03:09:17;100718.81;;;11.52;100.00
64933;BME280;51446;53.850;10.662;2023-08-30T03:11:44;100719.81;;;11.63;100.00
64933;BME280;51446;53.850;10.662;2023-08-30T03:14:11;100712.72;;;11.55;100.00
64933;BME280;51446;53.850;10.662;2023-08-30T03:16:39;100706.44;;;11.40;100.00
64933;BME280;51446;53.850;10.662;2023-08-30T03:19:04;100698.44;;;11.26;100.00
64933;BME280;51446;53.850;10.662;2023-08-30T03:21:30;100706.34;;;11.31;100.00
64933;BME280;51446;53.850;10.662;2023-08-30T03:24:15;100679.94;;;11.17;100.00
64933;BME280;51446;53.850;10.662;2023-08-30T03:26:59;100667.38;;;10.91;100.00
64933;BME280;51446;53.850;10.662;2023-08-30T03:29:32;100689.47;;;11.10;100.00
64933;BME280;51446;53.850;10.662;2023-08-30T03:32:06;100694.00;;;11.21;100.00
64933;BME280;51446;53.850;10.662;2023-08-30T03:44:37;100703.78;;;11.37;100.00
64933;BME280;51446;53.850;10.662;2023-08-30T03:50:13;100694.09;;;11.32;100.00
64933;BME280;51446;53.850;10.662;2023-08-30T03:52:41;100681.69;;;11.18;100.00
64933;BME280;51446;53.850;10.662;2023-08-30T03:55:13;100680.00;;;11.25;100.00
64933;BME280;51446;53.850;10.662;2023-08-30T03:57:40;100682.00;;;11.44;100.00
64933;BME280;51446;53.850;10.662;2023-08-30T04:00:11;100659.97;;;11.30;100.00
64933;BME280;51446;53.850;10.662;2023-08-30T04:02:37;100672.22;;;11.30;100.00
64933;BME280;51446;53.850;10.662;2023-08-30T04:05:33;100670.47;;;11.30;100.00
64933;BME280;51446;53.850;10.662;2023-08-30T04:08:08;100635.34;;;11.22;100.00
64933;BME280;51446;53.850;10.662;2023-08-30T04:10:42;100658.91;;;11.16;100.00
64933;BME280;51446;53.850;10.662;2023-08-30T04:13:14;100654.44;;;11.05;100.00
64933;BME280;51446;53.850;10.662;2023-08-30T04:15:49;100630.59;;;10.88;100.00
64933;BME280;51446;53.850;10.662;2023-08-30T04:21:17;100629.81;;;10.94;100.00
64933;BME280;51446;53.850;10.662;2023-08-30T04:23:59;100642.19;;;11.07;100.00
64933;BME280;51446;53.850;10.662;2023-08-30T04:26:25;100632.47;;;10.99;100.00
64933;BME280;51446;53.850;10.662;2023-08-30T04:28:54;100612.28;;;10.91;100.00
64933;BME280;51446;53.850;10.662;2023-08-30T04:41:50;100585.16;;;10.89;100.00
64933;BME280;51446;53.850;10.662;2023-08-30T04:44:34;100628.25;;;11.10;100.00
64933;BME280;51446;53.850;10.662;2023-08-30T04:47:21;100612.19;;;10.84;100.00
64933;BME280;51446;53.850;10.662;2023-08-30T04:49:53;100649.13;;;11.01;100.00
64933;BME280;51446;53.850;10.662;2023-08-30T04:52:22;100650.81;;;10.96;100.00
64933;BME280;51446;53.850;10.662;2023-08-30T04:58:11;100648.25;;;11.02;100.00
64933;BME280;51446;53.850;10.662;2023-08-30T05:10:42;100639.34;;;11.70;100.00
64933;BME280;51446;53.850;10.662;2023-08-30T05:16:29;100636.75;;;11.75;100.00
64933;BME280;51446;53.850;10.662;2023-08-30T05:22:20;100636.16;;;12.04;100.00
64933;BME280;51446;53.850;10.662;2023-08-30T05:24:47;100623.09;;;12.11;100.00
64933;BME280;51446;53.850;10.662;2023-08-30T05:27:12;100604.63;;;12.08;100.00
64933;BME280;51446;53.850;10.662;2023-08-30T05:29:39;100637.28;;;12.41;100.00
64933;BME280;51446;53.850;10.662;2023-08-30T05:32:06;100616.22;;;12.40;100.00
64933;BME280;51446;53.850;10.662;2023-08-30T05:34:32;100633.94;;;12.72;100.00
64933;BME280;51446;53.850;10.662;2023-08-30T05:36:58;100628.75;;;12.92;100.00
64933;BME280;51446;53.850;10.662;2023-08-30T05:39:24;100621.78;;;13.11;100.00
64933;BME280;51446;53.850;10.662;2023-08-30T05:41:49;100625.38;;;13.30;100.00
64933;BME280;51446;53.850;10.662;2023-08-30T05:44:14;100627.13;;;13.32;100.00
64933;BME280;51446;53.850;10.662;2023-08-30T05:46:39;100622.81;;;13.48;100.00
64933;BME280;51446;53.850;10.662;2023-08-30T05:49:05;100628.97;;;13.61;100.00
64933;BME280;51446;53.850;10.662;2023-08-30T05:51:30;100616.66;;;13.66;100.00
64933;BME280;51446;53.850;10.662;2023-08-30T05:53:56;100628.06;;;13.58;100.00
64933;BME280;51446;53.850;10.662;2023-08-30T05:56:21;100597.31;;;13.36;100.00
64933;BME280;51446;53.850;10.662;2023-08-30T05:58:47;100613.13;;;13.55;100.00
64933;BME280;51446;53.850;10.662;2023-08-30T06:01:13;100612.28;;;13.48;100.00
64933;BME280;51446;53.850;10.662;2023-08-30T06:03:42;100621.06;;;13.61;100.00
64933;BME280;51446;53.850;10.662;2023-08-30T06:06:07;100617.53;;;13.67;100.00
64933;BME280;51446;53.850;10.662;2023-08-30T06:08:34;100592.06;;;13.44;100.00
64933;BME280;51446;53.850;10.662;2023-08-30T06:11:00;100616.66;;;13.62;100.00
64933;BME280;51446;53.850;10.662;2023-08-30T06:13:26;100619.28;;;13.63;100.00
64933;BME280;51446;53.850;10.662;2023-08-30T06:15:51;100617.56;;;13.73;100.00
64933;BME280;51446;53.850;10.662;2023-08-30T06:18:17;100619.28;;;13.65;100.00
64933;BME280;51446;53.850;10.662;2023-08-30T06:20:42;100617.53;;;13.82;100.00
64933;BME280;51446;53.850;10.662;2023-08-30T06:23:08;100614.00;;;14.10;100.00
64933;BME280;51446;53.850;10.662;2023-08-30T06:25:33;100609.56;;;14.30;100.00
64933;BME280;51446;53.850;10.662;2023-08-30T06:27:59;100607.66;;;14.91;100.00
64933;BME280;51446;53.850;10.662;2023-08-30T06:30:26;100606.59;;;15.24;100.00
64933;BME280;51446;53.850;10.662;2023-08-30T06:32:51;100574.63;;;15.63;100.00
64933;BME280;51446;53.850;10.662;2023-08-30T06:35:17;100569.78;;;16.11;100.00
64933;BME280;51446;53.850;10.662;2023-08-30T06:37:42;100574.25;;;16.81;100.00
64933;BME280;51446;53.850;10.662;2023-08-30T06:40:08;100574.63;;;17.76;100.00
64933;BME280;51446;53.850;10.662;2023-08-30T06:42:33;100575.19;;;18.87;100.00
64933;BME280;51446;53.850;10.662;2023-08-30T06:44:59;100565.91;;;20.15;100.00
64933;BME280;51446;53.850;10.662;2023-08-30T06:47:24;100576.78;;;21.58;100.00
64933;BME280;51446;53.850;10.662;2023-08-30T06:49:49;100575.69;;;22.66;96.96
64933;BME280;51446;53.850;10.662;2023-08-30T06:52:14;100587.72;;;22.78;92.89
64933;BME280;51446;53.850;10.662;2023-08-30T06:54:40;100574.38;;;23.46;89.28
64933;BME280;51446;53.850;10.662;2023-08-30T06:57:05;100579.19;;;23.81;83.05
64933;BME280;51446;53.850;10.662;2023-08-30T06:59:32;100580.91;;;24.24;83.71
64933;BME280;51446;53.850;10.662;2023-08-30T07:01:58;100583.13;;;24.15;80.45
64933;BME280;51446;53.850;10.662;2023-08-30T07:04:23;100571.53;;;24.74;77.08
64933;BME280;51446;53.850;10.662;2023-08-30T07:06:48;100568.25;;;25.25;73.41
64933;BME280;51446;53.850;10.662;2023-08-30T07:09:14;100567.03;;;24.94;71.77
64933;BME280;51446;53.850;10.662;2023-08-30T07:11:42;100567.50;;;25.04;73.20
64933;BME280;51446;53.850;10.662;2023-08-30T07:14:09;100570.53;;;25.15;69.56
64933;BME280;51446;53.850;10.662;2023-08-30T07:16:34;100548.84;;;24.63;77.05
64933;BME280;51446;53.850;10.662;2023-08-30T07:18:59;100562.66;;;25.84;68.31
64933;BME280;51446;53.850;10.662;2023-08-30T07:21:26;100551.81;;;25.33;69.81
64933;BME280;51446;53.850;10.662;2023-08-30T07:23:52;100542.00;;;26.37;63.52
64933;BME280;51446;53.850;10.662;2023-08-30T07:26:17;100550.00;;;25.86;68.13
64933;BME280;51446;53.850;10.662;2023-08-30T07:28:42;100530.22;;;24.79;73.22
64933;BME280;51446;53.850;10.662;2023-08-30T07:31:09;100542.06;;;24.54;74.34
64933;BME280;51446;53.850;10.662;2023-08-30T07:33:35;100554.25;;;24.01;76.57
64933;BME280;51446;53.850;10.662;2023-08-30T07:36:00;100563.44;;;23.52;81.81
64933;BME280;51446;53.850;10.662;2023-08-30T07:38:25;100562.22;;;24.02;81.94
64933;BME280;51446;53.850;10.662;2023-08-30T07:40:51;100558.19;;;24.13;82.85
64933;BME280;51446;53.850;10.662;2023-08-30T07:43:16;100552.66;;;24.57;76.26
64933;BME280;51446;53.850;10.662;2023-08-30T07:45:41;100548.28;;;24.94;78.78
64933;BME280;51446;53.850;10.662;2023-08-30T07:48:07;100552.59;;;25.35;74.83
64933;BME280;51446;53.850;10.662;2023-08-30T07:50:32;100558.84;;;24.97;79.08
64933;BME280;51446;53.850;10.662;2023-08-30T07:52:57;100573.81;;;25.39;76.58
64933;BME280;51446;53.850;10.662;2023-08-30T07:55:23;100562.72;;;25.28;75.14
64933;BME280;51446;53.850;10.662;2023-08-30T07:57:48;100574.31;;;26.86;63.70
64933;BME280;51446;53.850;10.662;2023-08-30T08:00:13;100553.53;;;26.05;66.37
64933;BME280;51446;53.850;10.662;2023-08-30T08:02:39;100572.91;;;26.45;68.67
64933;BME280;51446;53.850;10.662;2023-08-30T08:05:05;100575.69;;;27.25;64.61
64933;BME280;51446;53.850;10.662;2023-08-30T08:07:30;100569.00;;;27.48;61.27
64933;BME280;51446;53.850;10.662;2023-08-30T08:09:56;100574.97;;;26.40;62.85
64933;BME280;51446;53.850;10.662;2023-08-30T08:12:22;100572.91;;;26.79;61.68
64933;BME280;51446;53.850;10.662;2023-08-30T08:14:47;100564.50;;;26.52;63.94
64933;BME280;51446;53.850;10.662;2023-08-30T08:17:12;100572.50;;;26.02;65.83
64933;BME280;51446;53.850;10.662;2023-08-30T08:19:38;100576.59;;;27.26;62.82
64933;BME280;51446;53.850;10.662;2023-08-30T08:22:06;100580.31;;;27.23;57.24
64933;BME280;51446;53.850;10.662;2023-08-30T08:24:31;100570.56;;;27.52;61.48
64933;BME280;51446;53.850;10.662;2023-08-30T08:26:57;100563.56;;;27.80;57.34
64933;BME280;51446;53.850;10.662;2023-08-30T08:29:22;100572.34;;;27.38;58.48
64933;BME280;51446;53.850;10.662;2023-08-30T08:31:47;100567.88;;;27.52;58.05
64933;BME280;51446;53.850;10.662;2023-08-30T08:34:13;100561.91;;;28.08;55.23
64933;BME280;51446;53.850;10.662;2023-08-30T08:36:40;100571.09;;;28.49;55.28
64933;BME280;51446;53.850;10.662;2023-08-30T08:39:05;100571.84;;;27.61;51.80
64933;BME280;51446;53.850;10.662;2023-08-30T08:41:43;100564.56;;;27.63;52.73
64933;BME280;51446;53.850;10.662;2023-08-30T08:44:09;100567.63;;;27.09;54.60
64933;BME280;51446;53.850;10.662;2023-08-30T08:46:37;100568.13;;;27.64;56.17
64933;BME280;51446;53.850;10.662;2023-08-30T08:49:09;100561.69;;;27.66;54.71
64933;BME280;51446;53.850;10.662;2023-08-30T08:51:35;100572.31;;;27.54;53.29
64933;BME280;51446;53.850;10.662;2023-08-30T08:54:03;100569.63;;;27.22;53.83
64933;BME280;51446;53.850;10.662;2023-08-30T08:56:32;100566.53;;;28.20;49.08
64933;BME280;51446;53.850;10.662;2023-08-30T08:58:59;100568.16;;;27.32;50.35
64933;BME280;51446;53.850;10.662;2023-08-30T09:01:24;100559.91;;;27.03;52.86
64933;BME280;51446;53.850;10.662;2023-08-30T09:03:51;100563.00;;;25.41;58.52
64933;BME280;51446;53.850;10.662;2023-08-30T09:06:18;100569.59;;;24.18;62.07
64933;BME280;51446;53.850;10.662;2023-08-30T09:08:45;100558.19;;;24.92;63.21
64933;BME280;51446;53.850;10.662;2023-08-30T09:11:10;100561.94;;;24.69;61.56
64933;BME280;51446;53.850;10.662;2023-08-30T09:13:35;100556.72;;;24.05;65.83
64933;BME280;51446;53.850;10.662;2023-08-30T09:16:01;100541.16;;;24.93;63.34
64933;BME280;51446;53.850;10.662;2023-08-30T09:18:27;100553.75;;;25.66;58.37
64933;BME280;51446;53.850;10.662;2023-08-30T09:21:04;100555.41;;;26.21;54.96
64933;BME280;51446;53.850;10.662;2023-08-30T09:23:30;100561.03;;;26.16;54.50
64933;BME280;51446;53.850;10.662;2023-08-30T09:25:55;100551.84;;;25.85;55.04
64933;BME280;51446;53.850;10.662;2023-08-30T09:28:20;100549.28;;;26.35;56.21
64933;BME280;51446;53.850;10.662;2023-08-30T09:30:50;100550.84;;;26.05;54.19
64933;BME280;51446;53.850;10.662;2023-08-30T09:33:29;100554.69;;;26.00;55.71
64933;BME280;51446;53.850;10.662;2023-08-30T09:35:54;100540.38;;;26.50;52.55
64933;BME280;51446;53.850;10.662;2023-08-30T09:38:20;100548.19;;;27.04;52.98
64933;BME280;51446;53.850;10.662;2023-08-30T09:40:45;100541.91;;;25.87;54.29
64933;BME280;51446;53.850;10.662;2023-08-30T09:43:12;100536.53;;;24.97;57.93
64933;BME280;51446;53.850;10.662;2023-08-30T09:45:38;100539.28;;;23.32;63.76
64933;BME280;51446;53.850;10.662;2023-08-30T09:48:05;100542.34;;;22.77;68.74
64933;BME280;51446;53.850;10.662;2023-08-30T09:50:34;100527.81;;;22.60;70.61
64933;BME280;51446;53.850;10.662;2023-08-30T09:53:03;100531.53;;;22.07;76.43
64933;BME280;51446;53.850;10.662;2023-08-30T09:55:30;100530.81;;;21.77;82.89
64933;BME280;51446;53.850;10.662;2023-08-30T09:57:55;100523.63;;;21.51;86.73
64933;BME280;51446;53.850;10.662;2023-08-30T10:00:22;100525.41;;;21.25;88.79
64933;BME280;51446;53.850;10.662;2023-08-30T10:02:48;100514.44;;;21.06;89.94
64933;BME280;51446;53.850;10.662;2023-08-30T10:05:13;100521.88;;;20.96;90.16
64933;BME280;51446;53.850;10.662;2023-08-30T10:07:42;100519.91;;;21.83;86.50
64933;BME280;51446;53.850;10.662;2023-08-30T10:10:10;100498.56;;;22.56;83.20
64933;BME280;51446;53.850;10.662;2023-08-30T10:12:37;100519.69;;;22.63;82.17
64933;BME280;51446;53.850;10.662;2023-08-30T10:15:02;100502.47;;;21.98;81.02
64933;BME280;51446;53.850;10.662;2023-08-30T10:17:31;100519.31;;;22.00;83.26
64933;BME280;51446;53.850;10.662;2023-08-30T10:19:57;100515.44;;;21.83;83.90
64933;BME280;51446;53.850;10.662;2023-08-30T10:22:24;100505.38;;;21.67;86.81
64933;BME280;51446;53.850;10.662;2023-08-30T10:24:55;100516.41;;;21.56;89.90
64933;BME280;51446;53.850;10.662;2023-08-30T10:27:24;100516.31;;;21.84;89.50
64933;BME280;51446;53.850;10.662;2023-08-30T10:29:51;100522.25;;;21.67;87.84
64933;BME280;51446;53.850;10.662;2023-08-30T10:32:21;100516.84;;;21.69;88.31
64933;BME280;51446;53.850;10.662;2023-08-30T10:34:49;100512.31;;;22.21;83.86
64933;BME280;51446;53.850;10.662;2023-08-30T10:37:15;100513.72;;;22.79;82.09
64933;BME280;51446;53.850;10.662;2023-08-30T10:39:42;100509.25;;;24.09;75.39
64933;BME280;51446;53.850;10.662;2023-08-30T10:42:12;100513.81;;;25.04;68.16
64933;BME280;51446;53.850;10.662;2023-08-30T10:45:00;100522.28;;;24.37;67.41
64933;BME280;51446;53.850;10.662;2023-08-30T10:47:33;100521.03;;;24.05;69.23
64933;BME280;51446;53.850;10.662;2023-08-30T10:50:05;100514.34;;;23.95;72.91
64933;BME280;51446;53.850;10.662;2023-08-30T10:52:30;100501.91;;;23.51;70.05
64933;BME280;51446;53.850;10.662;2023-08-30T10:55:10;100508.91;;;23.76;71.00
64933;BME280;51446;53.850;10.662;2023-08-30T10:57:37;100507.44;;;24.30;71.38
64933;BME280;51446;53.850;10.662;2023-08-30T11:02:37;100502.09;;;24.29;67.82
64933;BME280;51446;53.850;10.662;2023-08-30T11:05:05;100504.88;;;23.86;70.73
64933;BME280;51446;53.850;10.662;2023-08-30T11:07:32;100521.41;;;23.75;72.97
64933;BME280;51446;53.850;10.662;2023-08-30T11:09:58;100517.28;;;22.56;78.47
64933;BME280;51446;53.850;10.662;2023-08-30T11:12:24;100515.19;;;22.88;79.33
64933;BME280;51446;53.850;10.662;2023-08-30T11:14:51;100522.13;;;22.92;78.73
64933;BME280;51446;53.850;10.662;2023-08-30T11:17:17;100517.13;;;22.60;77.91
64933;BME280;51446;53.850;10.662;2023-08-30T11:19:43;100480.56;;;22.37;80.10
64933;BME280;51446;53.850;10.662;2023-08-30T11:22:23;100501.53;;;22.24;80.65
64933;BME280;51446;53.850;10.662;2023-08-30T11:24:49;100500.44;;;22.05;80.70
64933;BME280;51446;53.850;10.662;2023-08-30T11:27:17;100504.56;;;21.90;82.24
64933;BME280;51446;53.850;10.662;2023-08-30T11:29:42;100506.03;;;21.98;81.67
64933;BME280;51446;53.850;10.662;2023-08-30T11:32:08;100505.63;;;22.09;81.83
64933;BME280;51446;53.850;10.662;2023-08-30T11:34:33;100494.31;;;22.03;81.79
64933;BME280;51446;53.850;10.662;2023-08-30T11:36:58;100504.41;;;22.43;82.08
64933;BME280;51446;53.850;10.662;2023-08-30T11:39:28;100506.66;;;22.54;82.22
64933;BME280;51446;53.850;10.662;2023-08-30T11:41:53;100493.69;;;22.67;82.03
64933;BME280;51446;53.850;10.662;2023-08-30T11:44:19;100505.16;;;22.47;83.90
64933;BME280;51446;53.850;10.662;2023-08-30T11:46:44;100493.34;;;22.52;83.15
64933;BME280;51446;53.850;10.662;2023-08-30T11:49:11;100487.34;;;22.22;80.46
64933;BME280;51446;53.850;10.662;2023-08-30T11:51:37;100497.84;;;22.27;79.36
64933;BME280;51446;53.850;10.662;2023-08-30T11:54:03;100484.78;;;22.44;80.32
64933;BME280;51446;53.850;10.662;2023-08-30T11:56:29;100484.03;;;22.15;80.64
64933;BME280;51446;53.850;10.662;2023-08-30T11:58:56;100473.25;;;21.93;79.90
64933;BME280;51446;53.850;10.662;2023-08-30T12:01:21;100483.94;;;22.18;81.12
64933;BME280;51446;53.850;10.662;2023-08-30T12:03:47;100489.53;;;22.11;81.12
64933;BME280;51446;53.850;10.662;2023-08-30T12:06:16;100493.91;;;22.13;79.48
64933;BME280;51446;53.850;10.662;2023-08-30T12:08:41;100490.09;;;21.70;81.62
64933;BME280;51446;53.850;10.662;2023-08-30T12:11:20;100484.22;;;21.34;78.39
64933;BME280;51446;53.850;10.662;2023-08-30T12:13:46;100476.53;;;21.51;83.34
64933;BME280;51446;53.850;10.662;2023-08-30T12:16:17;100485.94;;;21.87;80.11
64933;BME280;51446;53.850;10.662;2023-08-30T12:18:43;100474.25;;;21.65;80.41
64933;BME280;51446;53.850;10.662;2023-08-30T12:21:08;100483.84;;;21.71;79.33
64933;BME280;51446;53.850;10.662;2023-08-30T12:23:37;100478.72;;;21.65;79.13
64933;BME280;51446;53.850;10.662;2023-08-30T12:26:08;100471.22;;;21.49;80.00
64933;BME280;51446;53.850;10.662;2023-08-30T12:28:40;100484.41;;;21.81;80.10
64933;BME280;51446;53.850;10.662;2023-08-30T12:31:06;100486.31;;;22.03;78.70
64933;BME280;51446;53.850;10.662;2023-08-30T12:33:35;100480.97;;;22.03;75.51
64933;BME280;51446;53.850;10.662;2023-08-30T12:36:01;100471.84;;;22.32;74.10
64933;BME280;51446;53.850;10.662;2023-08-30T12:38:27;100475.81;;;22.22;75.34
64933;BME280;51446;53.850;10.662;2023-08-30T12:40:54;100468.09;;;21.89;76.84
64933;BME280;51446;53.850;10.662;2023-08-30T12:43:25;100475.19;;;21.90;78.26
64933;BME280;51446;53.850;10.662;2023-08-30T12:45:50;100477.94;;;21.87;78.30
64933;BME280;51446;53.850;10.662;2023-08-30T12:48:17;100476.16;;;21.87;77.25
64933;BME280;51446;53.850;10.662;2023-08-30T12:50:45;100480.31;;;21.44;78.66
64933;BME280;51446;53.850;10.662;2023-08-30T12:53:10;100470.88;;;21.60;78.98
64933;BME280;51446;53.850;10.662;2023-08-30T12:55:36;100471.28;;;21.48;81.99
64933;BME280;51446;53.850;10.662;2023-08-30T12:58:05;100477.59;;;21.45;83.00
64933;BME280;51446;53.850;10.662;2023-08-30T13:00:31;100460.50;;;21.24;80.06
64933;BME280;51446;53.850;10.662;2023-08-30T13:02:56;100461.78;;;21.39;80.42
64933;BME280;51446;53.850;10.662;2023-08-30T13:05:21;100456.72;;;21.58;82.51
64933;BME280;51446;53.850;10.662;2023-08-30T13:07:47;100459.47;;;21.28;81.48
64933;BME280;51446;53.850;10.662;2023-08-30T13:10:13;100451.41;;;21.30;80.01
64933;BME280;51446;53.850;10.662;2023-08-30T13:12:39;100438.09;;;21.30;79.28
64933;BME280;51446;53.850;10.662;2023-08-30T13:15:05;100451.66;;;21.99;79.57
64933;BME280;51446;53.850;10.662;2023-08-30T13:17:31;100451.00;;;22.65;77.80
64933;BME280;51446;53.850;10.662;2023-08-30T13:19:57;100447.91;;;22.76;76.94
64933;BME280;51446;53.850;10.662;2023-08-30T13:22:24;100416.97;;;22.47;70.46
64933;BME280;51446;53.850;10.662;2023-08-30T13:24:50;100436.91;;;22.38;74.70
64933;BME280;51446;53.850;10.662;2023-08-30T13:27:15;100436.44;;;22.50;66.22
64933;BME280;51446;53.850;10.662;2023-08-30T13:29:41;100419.63;;;22.71;68.68